createdAt,value
2022-09-28T00:02:13.721Z,9.49
2022-09-28T00:04:40.480Z,9.53
2022-09-28T00:07:07.281Z,9.58
2022-09-28T00:09:34.019Z,9.60
2022-09-28T00:12:00.836Z,9.62
2022-09-28T00:14:27.737Z,9.64
2022-09-28T00:24:45.676Z,9.67
2022-09-28T00:27:32.725Z,9.64
2022-09-28T00:30:19.783Z,9.64
2022-09-28T00:32:46.502Z,9.62
2022-09-28T00:35:13.230Z,9.57
2022-09-28T00:37:40.905Z,9.50
2022-09-28T00:40:08.006Z,9.44
2022-09-28T00:42:35.221Z,9.39
2022-09-28T00:45:01.950Z,9.36
2022-09-28T00:47:51.674Z,9.36
2022-09-28T00:50:36.474Z,9.33
2022-09-28T00:53:14.599Z,9.31
2022-09-28T00:56:09.294Z,9.32
2022-09-28T00:58:44.276Z,9.34
2022-09-28T01:01:12.430Z,9.35
2022-09-28T01:03:45.307Z,9.38
2022-09-28T01:06:27.599Z,9.40
2022-09-28T01:08:58.634Z,9.37
2022-09-28T01:11:27.041Z,9.38
2022-09-28T01:13:57.688Z,9.39
2022-09-28T01:39:39.688Z,9.39
2022-09-28T01:42:14.613Z,9.37
2022-09-28T01:48:58.431Z,9.33
2022-09-28T01:51:36.970Z,9.33
2022-09-28T01:54:14.130Z,9.28
2022-09-28T01:56:46.599Z,9.27
2022-09-28T01:59:36.822Z,9.25
2022-09-28T02:02:29.656Z,9.21
2022-09-28T02:05:21.301Z,9.15
2022-09-28T02:08:21.199Z,9.12
2022-09-28T02:11:13.526Z,9.11
2022-09-28T02:14:10.437Z,9.08
2022-09-28T02:29:17.856Z,8.86
2022-09-28T02:35:39.882Z,8.78
2022-09-28T02:38:06.826Z,8.75
2022-09-28T02:40:35.546Z,8.76
2022-09-28T02:43:43.597Z,8.79
2022-09-28T02:46:19.239Z,8.85
2022-09-28T02:56:46.417Z,8.91
2022-09-28T02:59:31.689Z,8.92
2022-09-28T04:32:30.289Z,8.96
2022-09-28T04:35:17.529Z,8.96
2022-09-28T04:38:05.009Z,8.96
2022-09-28T04:40:31.742Z,8.96
2022-09-28T04:43:01.627Z,8.97
2022-09-28T04:45:28.728Z,8.97
2022-09-28T04:47:55.506Z,8.98
2022-09-28T04:50:22.338Z,8.97
2022-09-28T04:52:50.201Z,8.96
2022-09-28T04:55:17.120Z,8.97
2022-09-28T04:57:43.832Z,8.98
2022-09-28T05:00:12.187Z,8.98
2022-09-28T05:02:39.346Z,8.98
2022-09-28T05:05:06.515Z,8.98
2022-09-28T05:07:33.201Z,8.95
2022-09-28T05:10:00.737Z,8.91
2022-09-28T05:12:27.409Z,8.88
2022-09-28T05:14:54.087Z,8.84
2022-09-28T05:17:20.782Z,8.79
2022-09-28T05:19:47.486Z,8.74
2022-09-28T05:22:15.175Z,8.72
2022-09-28T05:24:41.950Z,8.69
2022-09-28T05:27:08.780Z,8.68
2022-09-28T05:29:35.564Z,8.68
2022-09-28T05:32:02.432Z,8.66
2022-09-28T05:34:29.456Z,8.63
2022-09-28T05:36:56.211Z,8.61
2022-09-28T05:39:22.970Z,8.62
2022-09-28T05:41:49.759Z,8.60
2022-09-28T05:44:16.679Z,8.57
2022-09-28T05:46:43.474Z,8.56
2022-09-28T05:49:10.190Z,8.54
2022-09-28T05:51:36.917Z,8.51
2022-09-28T05:54:06.097Z,8.48
2022-09-28T05:56:33.421Z,8.43
2022-09-28T05:59:00.207Z,8.40
2022-09-28T06:01:27.122Z,8.36
2022-09-28T06:03:53.870Z,8.32
2022-09-28T06:06:21.167Z,8.31
2022-09-28T06:08:48.596Z,8.27
2022-09-28T06:11:15.411Z,8.27
2022-09-28T06:13:42.188Z,8.26
2022-09-28T06:16:10.632Z,8.26
2022-09-28T06:18:37.308Z,8.24
2022-09-28T06:21:05.979Z,8.23
2022-09-28T06:23:32.672Z,8.21
2022-09-28T06:26:00.159Z,8.19
2022-09-28T06:28:27.070Z,8.19
2022-09-28T06:30:54.219Z,8.20
2022-09-28T06:33:21.985Z,8.21
2022-09-28T06:35:48.731Z,8.21
2022-09-28T06:38:15.432Z,8.20
2022-09-28T06:40:42.219Z,8.22
2022-09-28T06:43:35.248Z,8.23
2022-09-28T06:46:03.153Z,8.24
2022-09-28T06:53:14.011Z,8.25
2022-09-28T07:04:20.077Z,8.27
2022-09-28T07:06:57.571Z,8.30
2022-09-28T07:09:55.254Z,8.33
2022-09-28T07:12:24.106Z,8.35
2022-09-28T07:14:56.202Z,8.40
2022-09-28T07:17:24.187Z,8.46
2022-09-28T07:19:54.156Z,8.49
2022-09-28T07:22:32.614Z,8.56
2022-09-28T07:25:05.699Z,8.62
2022-09-28T07:31:13.109Z,8.66
2022-09-28T07:33:39.970Z,8.70
2022-09-28T07:36:07.344Z,8.72
2022-09-28T07:38:34.049Z,8.74
2022-09-28T07:41:12.945Z,8.78
2022-09-28T07:47:34.901Z,8.81
2022-09-28T07:58:14.854Z,8.83
2022-09-28T08:04:53.582Z,8.96
2022-09-28T08:07:23.830Z,9.05
2022-09-28T08:10:11.787Z,9.18
2022-09-28T08:16:57.185Z,9.60
2022-09-28T08:19:24.992Z,9.79
2022-09-28T08:21:51.702Z,9.98
2022-09-28T08:24:19.310Z,10.15
2022-09-28T08:34:48.798Z,10.66
2022-09-28T08:37:15.559Z,10.78
2022-09-28T08:44:00.716Z,11.16
2022-09-28T08:46:37.506Z,11.30
2022-09-28T08:49:24.847Z,11.40
2022-09-28T08:52:30.196Z,11.47
2022-09-28T08:55:33.196Z,11.56
2022-09-28T09:02:04.599Z,11.87
2022-09-28T09:04:33.726Z,12.02
2022-09-28T09:07:03.400Z,12.16
2022-09-28T09:13:32.985Z,12.37
2022-09-28T09:16:18.126Z,12.45
2022-09-28T09:18:58.754Z,12.85
2022-09-28T09:21:51.515Z,13.25
2022-09-28T09:24:55.268Z,13.46
2022-09-28T09:27:54.230Z,13.37
2022-09-28T09:31:05.055Z,13.51
2022-09-28T09:34:13.202Z,13.64
2022-09-28T09:37:17.186Z,13.35
2022-09-28T09:47:49.487Z,12.99
2022-09-28T09:50:29.804Z,13.57
2022-09-28T09:53:36.200Z,14.12
2022-09-28T09:56:15.989Z,14.34
2022-09-28T10:02:25.309Z,15.58
2022-09-28T10:16:58.707Z,17.21
2022-09-28T10:20:41.954Z,17.82
2022-09-28T10:23:36.492Z,17.12
2022-09-28T10:30:20.447Z,17.96
2022-09-28T10:41:17.284Z,16.46
2022-09-28T10:44:07.352Z,15.91
2022-09-28T10:46:36.070Z,15.54
2022-09-28T10:49:26.092Z,15.07
2022-09-28T10:51:56.275Z,14.61
2022-09-28T11:06:07.762Z,13.41
2022-09-28T11:08:45.791Z,13.34
2022-09-28T11:11:54.949Z,13.37
2022-09-28T11:14:39.763Z,13.36
2022-09-28T11:17:45.502Z,13.40
2022-09-28T11:20:28.291Z,13.42
2022-09-28T11:23:15.832Z,13.52
2022-09-28T11:26:05.913Z,13.75
2022-09-28T11:28:37.125Z,14.04
2022-09-28T11:31:08.925Z,14.30
2022-09-28T11:33:46.337Z,14.51
2022-09-28T11:36:13.008Z,14.65
2022-09-28T11:39:09.144Z,14.72
2022-09-28T11:46:02.288Z,14.52
2022-09-28T11:48:57.659Z,14.27
2022-09-28T11:51:45.681Z,14.08
2022-09-28T11:54:14.532Z,13.90
2022-09-28T11:57:01.390Z,13.80
2022-09-28T12:03:34.157Z,13.72
2022-09-28T12:06:05.213Z,13.91
2022-09-28T12:13:00.191Z,14.16
2022-09-28T12:16:27.239Z,14.04
2022-09-28T12:23:13.272Z,13.42
2022-09-28T12:26:19.753Z,13.19
2022-09-28T12:32:49.594Z,13.02
2022-09-28T12:35:24.607Z,13.14
2022-09-28T12:46:46.068Z,13.42
2022-09-28T12:52:38.828Z,13.27
2022-09-28T13:00:02.830Z,13.32
2022-09-28T13:11:21.737Z,13.28
2022-09-28T13:15:04.103Z,13.29
2022-09-28T13:22:03.162Z,14.01
2022-09-28T13:25:17.100Z,14.33
2022-09-28T13:28:15.856Z,14.65
2022-09-28T13:35:20.153Z,15.58
2022-09-28T13:38:16.473Z,15.38
2022-09-28T13:45:26.237Z,14.71
2022-09-28T13:52:20.804Z,13.10
2022-09-28T13:55:03.137Z,12.72
2022-09-28T13:57:35.778Z,12.47
2022-09-28T14:08:11.651Z,12.33
2022-09-28T14:11:29.148Z,12.30
2022-09-28T14:17:58.035Z,12.33
2022-09-28T14:20:26.376Z,12.39
2022-09-28T14:27:10.598Z,12.92
2022-09-28T14:29:39.192Z,13.37
2022-09-28T14:32:34.801Z,13.80
2022-09-28T14:35:06.623Z,14.14
2022-09-28T14:37:58.797Z,14.40
2022-09-28T14:41:10.214Z,14.69
2022-09-28T14:52:10.385Z,15.48
2022-09-28T14:54:52.934Z,15.66
2022-09-28T15:01:30.918Z,16.22
2022-09-28T15:04:04.757Z,16.16
2022-09-28T15:10:27.552Z,15.55
2022-09-28T15:13:26.801Z,15.27
2022-09-28T15:20:00.919Z,14.86
2022-09-28T15:22:27.895Z,14.67
2022-09-28T15:25:02.058Z,14.51
2022-09-28T15:27:39.369Z,14.30
2022-09-28T15:30:26.977Z,14.36
2022-09-28T15:33:49.337Z,14.47
2022-09-28T15:37:22.043Z,14.30
2022-09-28T15:40:16.505Z,14.47
2022-09-28T15:43:24.217Z,14.73
2022-09-28T15:46:04.102Z,15.05
2022-09-28T15:48:52.869Z,14.98
2022-09-28T15:51:22.176Z,14.85
2022-09-28T15:54:22.159Z,14.67
2022-09-28T15:57:02.757Z,14.42
2022-09-28T16:03:11.198Z,13.89
2022-09-28T16:06:24.278Z,13.71
2022-09-28T16:09:56.801Z,13.59
2022-09-28T16:16:16.937Z,14.18
2022-09-28T16:18:48.951Z,14.37
2022-09-28T16:25:16.569Z,14.67
2022-09-28T16:28:04.694Z,14.79
2022-09-28T16:35:13.170Z,14.87
2022-09-28T16:39:05.838Z,14.63
2022-09-28T16:41:32.605Z,14.37
2022-09-28T16:44:02.313Z,14.21
2022-09-28T16:46:39.166Z,14.06
2022-09-28T16:49:07.181Z,13.92
2022-09-28T16:51:46.146Z,13.80
2022-09-28T16:54:35.911Z,13.74
2022-09-28T16:57:22.114Z,13.62
2022-09-28T17:03:42.390Z,13.52
2022-09-28T17:06:11.660Z,13.42
2022-09-28T17:17:12.634Z,13.11
2022-09-28T17:27:45.387Z,13.00
2022-09-28T17:30:32.549Z,13.02
2022-09-28T17:33:29.379Z,13.07
2022-09-28T17:36:00.828Z,13.10
2022-09-28T17:38:27.743Z,13.16
2022-09-28T17:45:34.036Z,13.16
2022-09-28T17:48:24.486Z,13.11
2022-09-28T17:50:51.301Z,13.10
2022-09-28T18:05:15.769Z,12.88
2022-09-28T18:07:53.783Z,12.87
2022-09-28T18:10:23.429Z,12.85
2022-09-28T18:21:11.039Z,12.61
2022-09-28T18:23:38.633Z,12.57
2022-09-28T18:26:11.122Z,12.55
2022-09-28T18:28:39.373Z,12.55
2022-09-28T18:31:11.375Z,12.51
2022-09-28T18:33:38.694Z,12.47
2022-09-28T18:36:06.858Z,12.43
2022-09-28T18:42:25.425Z,12.31
2022-09-28T18:44:58.452Z,12.25
2022-09-28T18:47:25.625Z,12.21
2022-09-28T18:58:03.007Z,11.92
2022-09-28T19:01:13.484Z,11.85
2022-09-28T19:03:43.107Z,11.83
2022-09-28T19:06:15.954Z,11.78
2022-09-28T19:09:44.922Z,11.76
2022-09-28T19:15:52.273Z,11.61
2022-09-28T19:18:19.526Z,11.57
2022-09-28T19:32:20.164Z,11.33
2022-09-28T19:34:46.910Z,11.28
2022-09-28T19:37:13.638Z,11.24
2022-09-28T19:43:59.869Z,11.15
2022-09-28T19:51:04.615Z,11.07
2022-09-28T19:53:36.712Z,11.03
2022-09-28T19:59:44.413Z,10.96
2022-09-28T20:02:11.743Z,10.97
2022-09-28T20:04:38.797Z,10.95
2022-09-28T20:15:38.964Z,10.85
2022-09-28T20:21:48.233Z,10.77
2022-09-28T20:24:17.237Z,10.74
2022-09-28T20:26:46.010Z,10.74
2022-09-28T20:29:13.271Z,10.71
2022-09-28T20:31:40.490Z,10.67
2022-09-28T20:37:59.356Z,10.58
2022-09-28T20:40:27.290Z,10.54
2022-09-28T20:43:40.059Z,10.55
2022-09-28T20:50:55.385Z,10.49
2022-09-28T20:53:47.069Z,10.47
2022-09-28T21:00:45.873Z,10.37
2022-09-28T21:07:23.678Z,10.32
2022-09-28T21:09:50.634Z,10.28
2022-09-28T21:12:18.177Z,10.27
2022-09-28T21:18:35.482Z,10.22
2022-09-28T21:21:04.929Z,10.22
2022-09-28T21:23:31.679Z,10.20
2022-09-28T21:26:11.571Z,10.18
2022-09-28T21:28:39.813Z,10.17
2022-09-28T21:35:00.079Z,10.10
2022-09-28T21:37:47.028Z,10.08
2022-09-28T21:40:34.111Z,10.04
2022-09-28T21:43:00.978Z,10.03
2022-09-28T21:45:27.713Z,10.02
2022-09-28T21:48:03.116Z,10.01
2022-09-28T21:50:29.863Z,10.01
2022-09-28T22:00:37.905Z,9.97
2022-09-28T22:06:55.071Z,9.94
2022-09-28T22:09:21.777Z,9.90
2022-09-28T22:12:39.449Z,9.87
2022-09-28T22:19:04.776Z,9.79
2022-09-28T22:21:34.277Z,9.77
2022-09-28T22:27:51.569Z,9.75
2022-09-28T22:30:18.268Z,9.74
2022-09-28T22:32:45.047Z,9.71
2022-09-28T22:35:12.005Z,9.68
2022-09-28T22:37:38.708Z,9.66
2022-09-28T22:44:28.598Z,9.63
2022-09-28T22:46:55.696Z,9.62
2022-09-28T22:49:22.744Z,9.62
2022-09-28T22:55:34.702Z,9.59
2022-09-28T22:58:02.060Z,9.58
2022-09-28T23:00:28.784Z,9.58
2022-09-28T23:11:37.988Z,9.52
2022-09-28T23:14:47.988Z,9.53
2022-09-28T23:17:44.143Z,9.52
2022-09-28T23:20:10.841Z,9.52
2022-09-28T23:22:37.508Z,9.51
2022-09-28T23:25:04.413Z,9.49
2022-09-28T23:27:31.128Z,9.49
2022-09-28T23:37:59.364Z,9.44
2022-09-28T23:40:26.136Z,9.43
2022-09-28T23:42:52.852Z,9.41
2022-09-28T23:50:35.339Z,9.38
2022-09-28T23:53:02.059Z,9.37
